Airport View

Enter AWOS ICAO identifier for current METAR.

ex. KFNL

KPEO 191953Z AUTO 27008KT 10SM SCT055 28/17 A3002 RMK AO2 SLP158 T02830172

19 Aug 2019 20:28

Frequency: 121.175

Phone: 315-536-4102

Other Area AWOS: KITH - KDSV - KELM - K6B9

TAF KITH 191727Z 1918/2018 28009KT P6SM BKN050 FM192200 31007KT P6SM SCT250 FM200700 00000KT P6SM SCT200 FM201000 00000KT 3SM BR BKN019 FM201400 VRB03KT P6SM SCT250